createdAt,value
2022-09-06T00:00:58.291Z,3.30
2022-09-06T00:03:25.411Z,6.63
2022-09-06T00:05:52.058Z,4.15
2022-09-06T00:08:18.738Z,6.10
2022-09-06T00:10:45.467Z,3.58
2022-09-06T00:13:12.372Z,6.03
2022-09-06T00:15:39.211Z,3.33
2022-09-06T00:18:06.571Z,4.72
2022-09-06T00:20:33.427Z,5.00
2022-09-06T00:23:01.779Z,3.95
2022-09-06T00:25:28.688Z,2.97
2022-09-06T00:27:58.281Z,4.18
2022-09-06T00:30:25.194Z,3.88
2022-09-06T00:32:52.010Z,4.40
2022-09-06T00:35:18.930Z,3.28
2022-09-06T00:37:45.601Z,2.80
2022-09-06T00:40:12.441Z,4.13
2022-09-06T00:42:39.324Z,3.08
2022-09-06T00:45:06.964Z,4.43
2022-09-06T00:47:34.562Z,2.80
2022-09-06T00:50:01.545Z,3.25
2022-09-06T00:52:28.232Z,4.15
2022-09-06T00:54:54.994Z,4.13
2022-09-06T00:57:21.690Z,3.58
2022-09-06T00:59:48.361Z,4.15
2022-09-06T01:02:15.188Z,3.90
2022-09-06T01:04:42.608Z,3.03
2022-09-06T01:07:30.670Z,4.22
2022-09-06T01:10:05.452Z,4.43
2022-09-06T01:12:46.798Z,5.25
2022-09-06T01:15:34.075Z,4.03
2022-09-06T01:18:23.438Z,8.68
2022-09-06T01:21:11.735Z,4.10
2022-09-06T01:24:18.956Z,4.60
2022-09-06T01:27:12.751Z,4.38
2022-09-06T01:30:12.154Z,4.60
2022-09-06T01:32:49.744Z,5.30
2022-09-06T01:35:42.405Z,3.85
2022-09-06T01:38:09.119Z,5.07
2022-09-06T01:40:35.794Z,3.92
2022-09-06T01:43:06.036Z,5.88
2022-09-06T01:45:46.908Z,7.07
2022-09-06T01:48:52.301Z,4.07
2022-09-06T01:51:24.977Z,4.63
2022-09-06T01:54:18.243Z,4.18
2022-09-06T01:57:03.750Z,5.90
2022-09-06T01:59:49.344Z,5.68
2022-09-06T02:02:41.739Z,5.38
2022-09-06T02:05:25.217Z,4.93
2022-09-06T02:07:54.369Z,7.30
2022-09-06T02:10:31.588Z,5.38
2022-09-06T02:12:59.940Z,4.43
2022-09-06T02:15:31.540Z,5.00
2022-09-06T02:18:22.188Z,6.03
2022-09-06T02:20:53.828Z,6.07
2022-09-06T02:23:22.357Z,5.15
2022-09-06T02:25:59.240Z,4.53
2022-09-06T02:28:26.086Z,6.00
2022-09-06T02:31:01.275Z,5.43
2022-09-06T02:33:30.470Z,7.53
2022-09-06T02:35:57.113Z,6.43
2022-09-06T02:38:24.845Z,5.55
2022-09-06T02:40:52.605Z,9.02
2022-09-06T02:43:19.280Z,6.25
2022-09-06T02:45:46.004Z,7.68
2022-09-06T02:48:12.689Z,8.27
2022-09-06T02:50:39.399Z,6.53
2022-09-06T02:53:08.337Z,6.80
2022-09-06T02:55:35.062Z,7.45
2022-09-06T02:58:01.945Z,9.25
2022-09-06T03:00:28.774Z,8.20
2022-09-06T03:02:56.058Z,7.90
2022-09-06T03:05:23.681Z,7.50
2022-09-06T03:07:50.708Z,6.30
2022-09-06T03:10:17.394Z,7.70
2022-09-06T03:12:44.598Z,7.35
2022-09-06T03:15:12.268Z,8.02
2022-09-06T03:17:38.960Z,7.82
2022-09-06T03:20:06.075Z,7.25
2022-09-06T03:22:32.957Z,9.32
2022-09-06T03:24:59.661Z,8.50
2022-09-06T03:27:26.323Z,8.98
2022-09-06T03:29:53.033Z,8.43
2022-09-06T03:32:19.705Z,9.07
2022-09-06T03:34:48.293Z,10.45
2022-09-06T03:37:14.996Z,10.38
2022-09-06T03:39:41.698Z,10.15
2022-09-06T03:42:08.412Z,9.32
2022-09-06T03:44:35.092Z,10.32
2022-09-06T03:47:04.392Z,9.50
2022-09-06T03:49:31.026Z,8.13
2022-09-06T03:51:57.677Z,8.98
2022-09-06T03:54:24.349Z,9.25
2022-09-06T03:56:51.280Z,7.25
2022-09-06T03:59:17.943Z,10.35
2022-09-06T04:01:44.726Z,8.38
2022-09-06T04:04:11.425Z,8.80
2022-09-06T04:06:38.053Z,11.65
2022-09-06T04:09:04.729Z,8.15
2022-09-06T04:11:31.426Z,11.63
2022-09-06T04:13:58.119Z,10.40
2022-09-06T04:16:24.837Z,10.73
2022-09-06T04:18:51.570Z,11.82
2022-09-06T04:21:18.223Z,10.65
2022-09-06T04:23:44.998Z,14.88
2022-09-06T04:26:11.662Z,10.60
2022-09-06T04:28:38.355Z,12.00
2022-09-06T04:31:05.479Z,13.50
2022-09-06T04:33:33.283Z,11.45
2022-09-06T04:36:00.576Z,10.43
2022-09-06T04:38:27.965Z,14.10
2022-09-06T04:40:54.808Z,10.70
2022-09-06T04:43:22.102Z,13.30
2022-09-06T04:45:48.849Z,12.98
2022-09-06T04:48:15.675Z,13.60
2022-09-06T04:50:44.578Z,12.88
2022-09-06T04:53:11.250Z,13.35
2022-09-06T04:55:38.050Z,13.15
2022-09-06T04:58:05.473Z,12.40
2022-09-06T05:00:33.265Z,12.30
2022-09-06T05:02:59.943Z,12.93
2022-09-06T05:05:26.607Z,14.40
2022-09-06T05:07:56.842Z,14.13
2022-09-06T05:10:24.807Z,14.43
2022-09-06T05:12:52.447Z,13.07
2022-09-06T05:15:19.795Z,13.27
2022-09-06T05:17:46.526Z,13.52
2022-09-06T05:20:14.866Z,11.88
2022-09-06T05:22:41.524Z,11.75
2022-09-06T05:25:10.002Z,18.13
2022-09-06T05:27:37.904Z,13.68
2022-09-06T05:30:06.679Z,11.00
2022-09-06T05:32:33.384Z,11.90
2022-09-06T05:35:00.754Z,16.90
2022-09-06T05:37:27.499Z,14.02
2022-09-06T05:39:54.223Z,12.85
2022-09-06T05:42:20.936Z,11.23
2022-09-06T05:44:47.600Z,12.68
2022-09-06T05:47:14.316Z,12.13
2022-09-06T05:49:40.971Z,12.90
2022-09-06T05:52:07.678Z,13.32
2022-09-06T05:54:34.469Z,11.88
2022-09-06T05:57:01.295Z,13.13
2022-09-06T05:59:28.019Z,11.90
2022-09-06T06:01:54.973Z,12.23
2022-09-06T06:04:22.008Z,12.55
2022-09-06T06:06:48.823Z,13.07
2022-09-06T06:09:15.938Z,11.98
2022-09-06T06:11:42.816Z,15.38
2022-09-06T06:14:09.660Z,13.38
2022-09-06T06:16:36.704Z,12.27
2022-09-06T06:19:03.670Z,10.73
2022-09-06T06:21:33.207Z,13.48
2022-09-06T06:26:31.952Z,12.07
2022-09-06T06:28:58.950Z,16.40
2022-09-06T06:31:27.978Z,15.63
2022-09-06T06:33:54.753Z,13.10
2022-09-06T06:36:22.909Z,11.45
2022-09-06T06:38:50.320Z,14.02
2022-09-06T06:41:20.116Z,13.45
2022-09-06T06:43:46.855Z,14.02
2022-09-06T06:46:15.112Z,11.90
2022-09-06T06:48:42.203Z,11.65
2022-09-06T06:51:11.565Z,14.45
2022-09-06T06:53:38.241Z,13.23
2022-09-06T06:56:18.972Z,12.23
2022-09-06T06:58:45.843Z,14.68
2022-09-06T07:01:12.690Z,13.07
2022-09-06T07:03:39.654Z,13.45
2022-09-06T07:08:36.361Z,15.73
2022-09-06T07:11:03.821Z,16.13
2022-09-06T07:13:31.220Z,12.60
2022-09-06T07:16:08.442Z,13.32
2022-09-06T07:18:35.442Z,13.60
2022-09-06T07:26:31.176Z,15.68
2022-09-06T07:29:00.019Z,12.77
2022-09-06T07:34:14.445Z,16.65
2022-09-06T07:36:41.164Z,14.00
2022-09-06T07:39:07.907Z,15.35
2022-09-06T07:41:34.650Z,12.43
2022-09-06T07:44:01.497Z,12.75
2022-09-06T07:46:28.238Z,11.50
2022-09-06T07:48:54.988Z,12.23
2022-09-06T07:51:24.539Z,12.48
2022-09-06T07:54:07.069Z,16.08
2022-09-06T07:56:39.753Z,13.32
2022-09-06T07:59:06.530Z,15.68
2022-09-06T08:01:33.968Z,10.35
2022-09-06T08:04:01.944Z,11.60
2022-09-06T08:06:31.285Z,16.13
2022-09-06T08:11:27.910Z,9.95
2022-09-06T08:13:54.876Z,10.07
2022-09-06T08:16:22.337Z,10.10
2022-09-06T08:18:52.902Z,12.85
2022-09-06T08:21:20.170Z,9.00
2022-09-06T08:23:48.306Z,9.38
2022-09-06T08:26:18.283Z,11.15
2022-09-06T08:28:48.261Z,9.25
2022-09-06T08:31:16.218Z,9.75
2022-09-06T08:33:43.316Z,9.10
2022-09-06T08:36:10.386Z,12.30
2022-09-06T08:38:37.232Z,8.98
2022-09-06T08:41:09.456Z,9.02
2022-09-06T08:43:36.452Z,7.97
2022-09-06T08:46:03.403Z,8.45
2022-09-06T08:48:34.819Z,8.05
2022-09-06T08:51:28.969Z,7.25
2022-09-06T08:53:59.915Z,6.68
2022-09-06T08:56:38.443Z,8.13
2022-09-06T08:59:12.282Z,8.52
2022-09-06T09:02:09.961Z,5.47
2022-09-06T09:04:38.794Z,6.68
2022-09-06T09:07:33.057Z,9.63
2022-09-06T09:09:59.829Z,10.25
2022-09-06T09:12:26.498Z,7.65
2022-09-06T09:14:55.845Z,7.53
2022-09-06T09:17:27.707Z,12.55
2022-09-06T09:19:55.068Z,8.23
2022-09-06T09:22:21.762Z,9.27
2022-09-06T09:24:48.546Z,7.72
2022-09-06T09:27:17.566Z,6.95
2022-09-06T09:32:41.378Z,9.52
2022-09-06T09:35:22.189Z,7.93
2022-09-06T09:37:55.859Z,5.20
2022-09-06T09:40:25.746Z,9.65
2022-09-06T09:42:57.088Z,9.00
2022-09-06T09:45:30.845Z,7.63
2022-09-06T09:47:57.602Z,6.97
2022-09-06T09:50:31.976Z,5.85
2022-09-06T09:53:16.358Z,5.15
2022-09-06T09:55:43.092Z,7.38
2022-09-06T09:58:38.130Z,4.90
2022-09-06T10:01:21.692Z,7.97
2022-09-06T10:09:33.449Z,8.93
2022-09-06T10:12:01.227Z,5.80
2022-09-06T10:14:33.517Z,8.70
2022-09-06T10:17:00.338Z,7.22
2022-09-06T10:19:39.742Z,5.28
2022-09-06T10:22:30.559Z,6.10
2022-09-06T10:25:28.557Z,7.95
2022-09-06T10:28:31.956Z,7.05
2022-09-06T10:31:17.400Z,6.70
2022-09-06T10:34:26.239Z,8.13
2022-09-06T10:37:23.476Z,9.30
2022-09-06T10:40:10.149Z,4.88
2022-09-06T10:42:46.005Z,7.50
2022-09-06T10:45:34.243Z,7.10
2022-09-06T10:48:20.827Z,11.18
2022-09-06T10:50:54.761Z,6.18
2022-09-06T10:53:39.468Z,5.57
2022-09-06T10:56:11.785Z,6.30
2022-09-06T11:02:18.155Z,4.72
2022-09-06T11:07:36.356Z,5.45
2022-09-06T11:10:15.990Z,5.18
2022-09-06T11:12:45.648Z,7.10
2022-09-06T11:15:13.445Z,4.68
2022-09-06T11:17:55.360Z,6.45
2022-09-06T11:20:31.364Z,3.72
2022-09-06T11:23:13.857Z,4.97
2022-09-06T11:25:46.371Z,5.30
2022-09-06T11:28:18.476Z,4.45
2022-09-06T11:30:48.745Z,6.18
2022-09-06T11:33:31.377Z,5.90
2022-09-06T11:36:24.577Z,5.03
2022-09-06T11:38:58.495Z,4.85
2022-09-06T11:41:30.493Z,5.53
2022-09-06T11:43:57.359Z,6.70
2022-09-06T11:46:36.177Z,6.38
2022-09-06T11:49:30.163Z,5.43
2022-09-06T11:51:57.081Z,5.15
2022-09-06T11:54:26.173Z,7.65
2022-09-06T11:57:13.013Z,7.28
2022-09-06T12:00:00.272Z,5.25
2022-09-06T12:05:00.968Z,6.47
2022-09-06T12:07:28.357Z,5.05
2022-09-06T12:09:55.028Z,5.68
2022-09-06T12:12:41.355Z,3.83
2022-09-06T12:15:27.543Z,5.88
2022-09-06T12:17:54.202Z,6.32
2022-09-06T12:21:05.790Z,4.47
2022-09-06T12:23:35.200Z,5.93
2022-09-06T12:26:08.691Z,5.75
2022-09-06T12:28:45.917Z,5.65
2022-09-06T12:31:25.659Z,8.63
2022-09-06T12:33:52.558Z,6.20
2022-09-06T12:36:20.971Z,5.45
2022-09-06T12:38:55.459Z,6.43
2022-09-06T12:41:22.289Z,5.93
2022-09-06T12:43:49.767Z,4.95
2022-09-06T12:46:16.510Z,7.97
2022-09-06T12:48:43.231Z,4.72
2022-09-06T12:51:19.062Z,5.20
2022-09-06T12:54:02.528Z,5.68
2022-09-06T12:56:29.971Z,5.07
2022-09-06T12:59:26.966Z,4.30
2022-09-06T13:02:00.917Z,4.78
2022-09-06T13:04:46.794Z,5.10
2022-09-06T13:07:18.821Z,6.97
2022-09-06T13:09:47.059Z,5.07
2022-09-06T13:12:33.598Z,5.53
2022-09-06T13:15:19.132Z,5.30
2022-09-06T13:17:45.932Z,6.25
2022-09-06T13:20:25.701Z,4.40
2022-09-06T13:22:52.465Z,6.03
2022-09-06T13:25:21.829Z,7.10
2022-09-06T13:27:49.677Z,6.88
2022-09-06T13:30:34.894Z,6.38
2022-09-06T13:33:02.304Z,5.32
2022-09-06T13:35:33.759Z,9.98
2022-09-06T13:38:22.791Z,8.75
2022-09-06T13:41:10.651Z,8.77
2022-09-06T13:43:43.241Z,4.68
2022-09-06T13:46:10.858Z,9.10
2022-09-06T13:48:37.714Z,7.68
2022-09-06T13:51:05.643Z,6.22
2022-09-06T13:53:32.817Z,6.47
2022-09-06T13:55:59.537Z,6.40
2022-09-06T13:58:26.485Z,6.85
2022-09-06T14:00:53.811Z,7.32
2022-09-06T14:03:28.622Z,6.28
2022-09-06T14:05:55.290Z,5.82
2022-09-06T14:08:21.907Z,5.90
2022-09-06T14:10:48.712Z,6.68
2022-09-06T14:13:16.336Z,9.20
2022-09-06T14:15:43.101Z,6.53
2022-09-06T14:18:14.209Z,5.78
2022-09-06T14:20:41.391Z,11.73
2022-09-06T14:23:08.359Z,6.38
2022-09-06T14:25:36.120Z,5.57
2022-09-06T14:28:05.800Z,6.75
2022-09-06T14:30:32.519Z,10.90
2022-09-06T14:32:59.357Z,6.03
2022-09-06T14:35:26.196Z,7.07
2022-09-06T14:37:52.871Z,6.68
2022-09-06T14:40:19.622Z,9.15
2022-09-06T14:42:49.933Z,6.25
2022-09-06T14:45:17.410Z,6.78
2022-09-06T14:47:44.063Z,5.82
2022-09-06T14:50:10.849Z,7.90
2022-09-06T14:52:39.099Z,8.73
2022-09-06T14:55:06.377Z,6.15
2022-09-06T14:57:33.003Z,5.15
2022-09-06T14:59:59.654Z,8.80
2022-09-06T15:02:26.467Z,16.90
2022-09-06T15:04:54.689Z,7.40
2022-09-06T15:07:21.984Z,6.32
2022-09-06T15:09:48.770Z,8.45
2022-09-06T15:12:18.326Z,5.93
2022-09-06T15:14:45.033Z,10.68
2022-09-06T15:17:11.758Z,6.68
2022-09-06T15:19:40.541Z,6.28
2022-09-06T15:22:07.310Z,5.15
2022-09-06T15:24:34.082Z,7.85
2022-09-06T15:27:00.738Z,7.57
2022-09-06T15:29:27.434Z,7.03
2022-09-06T15:31:54.151Z,5.90
2022-09-06T15:34:21.954Z,10.43
2022-09-06T15:36:49.668Z,5.72
2022-09-06T15:39:16.484Z,49.55
2022-09-06T15:41:43.175Z,17.15
2022-09-06T15:44:14.284Z,8.20
2022-09-06T15:46:46.373Z,5.72
2022-09-06T15:49:18.096Z,8.30
2022-09-06T15:51:45.013Z,11.77
2022-09-06T15:54:12.093Z,7.22
2022-09-06T15:56:38.781Z,9.57
2022-09-06T15:59:05.831Z,9.93
2022-09-06T16:01:32.714Z,8.55
2022-09-06T16:03:59.508Z,7.35
2022-09-06T16:06:27.778Z,10.65
2022-09-06T16:09:06.533Z,6.50
2022-09-06T16:11:34.750Z,6.72
2022-09-06T16:14:01.448Z,8.73
2022-09-06T16:16:28.289Z,8.70
2022-09-06T16:18:56.209Z,8.05
2022-09-06T16:21:24.430Z,9.10
2022-09-06T16:23:55.871Z,8.93
2022-09-06T16:26:23.301Z,8.82
2022-09-06T16:28:50.906Z,9.38
2022-09-06T16:31:17.884Z,6.97
2022-09-06T16:33:44.657Z,7.10
2022-09-06T16:36:11.605Z,9.00
2022-09-06T16:38:39.126Z,8.77
2022-09-06T16:41:13.056Z,9.25
2022-09-06T16:43:39.915Z,6.57
2022-09-06T16:46:06.704Z,8.48
2022-09-06T16:48:33.490Z,6.63
2022-09-06T16:51:11.908Z,7.45
2022-09-06T16:53:39.826Z,7.55
2022-09-06T16:56:06.802Z,8.00
2022-09-06T16:58:33.878Z,8.00
2022-09-06T17:01:00.785Z,6.75
2022-09-06T17:03:27.556Z,5.47
2022-09-06T17:05:54.435Z,7.00
2022-09-06T17:08:21.230Z,6.25
2022-09-06T17:10:47.899Z,6.28
2022-09-06T17:13:14.704Z,7.38
2022-09-06T17:15:41.370Z,7.53
2022-09-06T17:18:08.166Z,8.00
2022-09-06T17:20:34.807Z,5.05
2022-09-06T17:23:01.447Z,9.95
2022-09-06T17:25:28.079Z,7.32
2022-09-06T17:27:55.025Z,9.23
2022-09-06T17:30:21.761Z,5.57
2022-09-06T17:32:48.505Z,7.35
2022-09-06T17:35:15.262Z,8.02
2022-09-06T17:37:41.989Z,8.48
2022-09-06T17:40:09.842Z,5.70
2022-09-06T17:42:36.531Z,6.88
2022-09-06T17:45:03.310Z,5.72
2022-09-06T17:47:29.947Z,7.90
2022-09-06T17:49:56.628Z,8.32
2022-09-06T17:52:23.265Z,5.70
2022-09-06T17:54:58.297Z,5.53
2022-09-06T17:57:24.948Z,6.85
2022-09-06T17:59:51.629Z,9.07
2022-09-06T18:02:18.332Z,7.80
2022-09-06T18:04:45.150Z,10.00
2022-09-06T18:07:11.850Z,7.68
2022-09-06T18:09:38.562Z,8.88
2022-09-06T18:12:05.265Z,6.90
2022-09-06T18:14:31.984Z,6.80
2022-09-06T18:16:58.714Z,7.97
2022-09-06T18:19:25.481Z,8.18
2022-09-06T18:21:52.126Z,8.30
2022-09-06T18:24:18.877Z,8.90
2022-09-06T18:26:45.512Z,5.93
2022-09-06T18:29:12.643Z,6.63
2022-09-06T18:31:39.793Z,7.50
2022-09-06T18:34:07.243Z,7.53
2022-09-06T18:36:33.961Z,5.15
2022-09-06T18:39:01.505Z,11.07
2022-09-06T18:41:28.331Z,6.35
2022-09-06T18:43:56.462Z,4.53
2022-09-06T18:46:23.201Z,9.07
2022-09-06T18:48:56.902Z,6.25
2022-09-06T18:51:24.916Z,5.60
2022-09-06T18:53:51.621Z,3.70
2022-09-06T18:56:18.682Z,8.10
2022-09-06T18:58:45.586Z,7.20
2022-09-06T19:01:14.005Z,6.93
2022-09-06T19:03:41.041Z,6.93
2022-09-06T19:06:15.284Z,5.13
2022-09-06T19:08:42.126Z,5.90
2022-09-06T19:11:11.199Z,6.50
2022-09-06T19:13:39.467Z,6.93
2022-09-06T19:16:06.753Z,4.90
2022-09-06T19:18:33.950Z,6.13
2022-09-06T19:21:08.721Z,7.38
2022-09-06T19:23:37.441Z,7.18
2022-09-06T19:26:04.162Z,6.22
2022-09-06T19:28:31.135Z,6.85
2022-09-06T19:30:57.829Z,4.93
2022-09-06T19:33:24.655Z,5.75
2022-09-06T19:36:10.524Z,5.63
2022-09-06T19:39:01.597Z,6.38
2022-09-06T19:41:24.868Z,5.00
2022-09-06T19:43:53.024Z,6.65
2022-09-06T19:46:20.109Z,3.90
2022-09-06T19:48:48.244Z,4.75
2022-09-06T19:51:15.242Z,5.53
2022-09-06T19:53:42.207Z,6.90
2022-09-06T19:56:17.521Z,5.15
2022-09-06T19:58:44.374Z,8.25
2022-09-06T20:01:12.102Z,6.82
2022-09-06T20:03:39.070Z,5.28
2022-09-06T20:06:06.305Z,4.93
2022-09-06T20:08:34.062Z,6.53
2022-09-06T20:11:01.048Z,7.25
2022-09-06T20:13:28.284Z,5.63
2022-09-06T20:15:55.378Z,8.70
2022-09-06T20:18:22.178Z,5.32
2022-09-06T20:20:53.953Z,7.95
2022-09-06T20:23:20.656Z,6.22
2022-09-06T20:25:56.837Z,8.68
2022-09-06T20:28:23.605Z,8.05
2022-09-06T20:30:50.337Z,9.07
2022-09-06T20:33:17.018Z,7.88
2022-09-06T20:35:43.706Z,11.38
2022-09-06T20:38:10.367Z,11.68
2022-09-06T20:40:37.020Z,6.80
2022-09-06T20:43:03.683Z,11.55
2022-09-06T20:45:31.406Z,14.20
2022-09-06T20:47:58.131Z,11.18
2022-09-06T20:50:24.813Z,22.02
2022-09-06T20:52:51.549Z,15.38
2022-09-06T20:55:18.184Z,13.05
2022-09-06T20:57:46.983Z,13.88
2022-09-06T21:00:14.587Z,11.05
2022-09-06T21:02:41.274Z,9.82
2022-09-06T21:05:08.337Z,14.57
2022-09-06T21:07:34.994Z,12.80
2022-09-06T21:10:01.754Z,10.25
2022-09-06T21:12:28.510Z,7.47
2022-09-06T21:14:55.148Z,7.05
2022-09-06T21:17:21.822Z,6.93
2022-09-06T21:19:48.476Z,6.57
2022-09-06T21:22:15.152Z,9.55
2022-09-06T21:24:41.836Z,9.98
2022-09-06T21:27:08.481Z,7.57
2022-09-06T21:29:35.120Z,4.72
2022-09-06T21:32:01.856Z,5.30
2022-09-06T21:34:29.135Z,7.68
2022-09-06T21:36:55.886Z,5.10
2022-09-06T21:39:22.807Z,8.65
2022-09-06T21:41:49.556Z,10.85
2022-09-06T21:44:16.200Z,12.88
2022-09-06T21:46:42.994Z,15.43
2022-09-06T21:49:11.725Z,15.15
2022-09-06T21:51:38.636Z,20.60
2022-09-06T21:54:05.645Z,18.90
2022-09-06T21:56:33.474Z,27.85
2022-09-06T21:59:00.134Z,29.88
2022-09-06T22:01:28.572Z,26.33
2022-09-06T22:03:55.431Z,34.28
2022-09-06T22:06:23.859Z,31.60
2022-09-06T22:08:50.666Z,33.00
2022-09-06T22:11:22.310Z,31.73
2022-09-06T22:13:49.344Z,28.55
2022-09-06T22:16:17.639Z,33.80
2022-09-06T22:18:44.490Z,40.75
2022-09-06T22:21:15.363Z,25.88
2022-09-06T22:23:42.131Z,24.60
2022-09-06T22:26:12.106Z,27.33
2022-09-06T22:28:38.777Z,24.23
2022-09-06T22:31:05.745Z,22.73
2022-09-06T22:33:32.490Z,19.75
2022-09-06T22:35:59.154Z,23.95
2022-09-06T22:38:26.456Z,17.58
2022-09-06T22:40:53.275Z,17.40
2022-09-06T22:43:20.109Z,17.05
2022-09-06T22:45:51.754Z,18.60
2022-09-06T22:48:18.719Z,21.73
2022-09-06T22:50:45.595Z,26.10
2022-09-06T22:53:12.388Z,25.67
2022-09-06T22:55:39.141Z,23.23
2022-09-06T22:58:05.974Z,23.58
2022-09-06T23:00:35.098Z,22.60
2022-09-06T23:03:01.932Z,22.17
2022-09-06T23:05:30.053Z,25.15
2022-09-06T23:07:59.321Z,21.40
2022-09-06T23:10:25.933Z,22.98
2022-09-06T23:12:52.669Z,24.55
2022-09-06T23:15:19.302Z,21.85
2022-09-06T23:17:46.012Z,20.65
2022-09-06T23:20:12.677Z,17.55
2022-09-06T23:22:39.495Z,23.88
2022-09-06T23:25:06.758Z,22.27
2022-09-06T23:27:33.819Z,22.73
2022-09-06T23:30:00.990Z,21.23
2022-09-06T23:32:27.972Z,21.77
2022-09-06T23:34:54.754Z,20.02
2022-09-06T23:37:21.771Z,22.33
2022-09-06T23:39:48.483Z,26.60
2022-09-06T23:42:15.202Z,23.58
2022-09-06T23:44:41.851Z,21.88
2022-09-06T23:47:08.552Z,24.42
2022-09-06T23:49:35.210Z,24.38
2022-09-06T23:52:02.077Z,27.65
2022-09-06T23:54:28.699Z,27.25
2022-09-06T23:56:55.347Z,32.28
2022-09-06T23:59:22.039Z,27.05
